createdAt,value
2023-01-15T00:03:01.022Z,8.12
2023-01-15T00:08:02.613Z,8.28
2023-01-15T00:13:04.046Z,8.32
2023-01-15T00:18:05.535Z,8.18
2023-01-15T00:23:26.919Z,8.27
2023-01-15T00:28:28.409Z,8.24
2023-01-15T00:33:29.980Z,8.34
2023-01-15T00:38:31.394Z,8.50
2023-01-15T00:43:32.804Z,8.31
2023-01-15T00:48:35.307Z,8.33
2023-01-15T00:53:36.774Z,8.29
2023-01-15T00:58:38.218Z,8.18
2023-01-15T01:03:39.869Z,8.21
2023-01-15T01:08:41.474Z,8.02
2023-01-15T01:13:43.598Z,8.15
2023-01-15T01:18:45.005Z,8.19
2023-01-15T01:23:46.495Z,8.06
2023-01-15T01:28:52.116Z,8.05
2023-01-15T01:33:56.005Z,8.16
2023-01-15T01:38:57.597Z,8.14
2023-01-15T01:44:04.045Z,8.23
2023-01-15T01:49:12.867Z,8.05
2023-01-15T01:54:19.247Z,8.11
2023-01-15T01:59:22.434Z,8.25
2023-01-15T02:04:27.688Z,8.05
2023-01-15T02:09:29.104Z,8.30
2023-01-15T02:14:39.075Z,8.13
2023-01-15T02:20:03.218Z,8.24
2023-01-15T02:25:13.461Z,8.26
2023-01-15T02:30:29.147Z,8.36
2023-01-15T02:35:44.547Z,8.24
2023-01-15T02:40:48.260Z,8.37
2023-01-15T02:45:52.754Z,8.30
2023-01-15T02:51:01.624Z,8.33
2023-01-15T02:56:07.740Z,8.37
2023-01-15T03:01:18.174Z,8.39
2023-01-15T03:06:27.834Z,8.40
2023-01-15T03:11:30.980Z,8.33
2023-01-15T03:16:44.938Z,8.26
2023-01-15T03:21:56.065Z,8.44
2023-01-15T03:26:57.748Z,8.60
2023-01-15T03:32:00.689Z,8.58
2023-01-15T03:37:02.775Z,8.48
2023-01-15T03:42:22.819Z,8.53
2023-01-15T03:47:29.953Z,8.56
2023-01-15T03:52:41.649Z,8.51
2023-01-15T03:57:54.894Z,8.41
2023-01-15T04:02:58.415Z,8.69
2023-01-15T04:08:01.204Z,8.72
2023-01-15T04:13:02.655Z,8.68
2023-01-15T04:18:04.176Z,8.52
2023-01-15T04:23:05.601Z,8.74
2023-01-15T04:28:08.459Z,8.72
2023-01-15T04:33:11.664Z,8.49
2023-01-15T04:38:13.125Z,9.03
2023-01-15T04:43:33.066Z,8.50
2023-01-15T04:48:34.496Z,8.39
2023-01-15T04:53:36.963Z,8.29
2023-01-15T04:58:38.549Z,8.32
2023-01-15T05:03:40.113Z,8.23
2023-01-15T05:08:42.139Z,8.20
2023-01-15T05:13:43.633Z,8.23
2023-01-15T05:18:46.874Z,8.20
2023-01-15T05:23:49.877Z,8.21
2023-01-15T05:28:54.676Z,8.18
2023-01-15T05:33:57.282Z,8.24
2023-01-15T05:39:02.287Z,8.36
2023-01-15T05:44:12.187Z,8.25
2023-01-15T05:49:16.845Z,8.28
2023-01-15T05:54:22.244Z,8.20
2023-01-15T05:59:26.006Z,8.22
2023-01-15T06:04:27.655Z,8.30
2023-01-15T06:09:29.704Z,8.28
2023-01-15T06:14:31.288Z,8.21
2023-01-15T06:19:33.351Z,8.27
2023-01-15T06:24:34.785Z,8.28
2023-01-15T06:29:36.191Z,8.32
2023-01-15T06:34:37.648Z,8.30
2023-01-15T06:39:39.130Z,8.22
2023-01-15T06:45:00.820Z,8.25
2023-01-15T06:50:02.581Z,8.40
2023-01-15T06:55:04.306Z,8.18
2023-01-15T07:00:10.340Z,8.41
2023-01-15T07:05:11.864Z,8.33
2023-01-15T07:10:13.308Z,8.38
2023-01-15T07:15:14.881Z,8.26
2023-01-15T07:20:18.780Z,8.19
2023-01-15T07:25:20.210Z,8.33
2023-01-15T07:30:21.637Z,8.55
2023-01-15T07:35:23.042Z,8.58
2023-01-15T07:40:24.498Z,8.53
2023-01-15T07:45:44.734Z,8.62
2023-01-15T07:50:46.465Z,8.66
2023-01-15T07:55:47.928Z,8.71
2023-01-15T08:00:49.376Z,8.56
2023-01-15T08:05:50.876Z,8.69
2023-01-15T08:11:10.800Z,8.61
2023-01-15T08:16:12.338Z,8.59
2023-01-15T08:21:15.565Z,8.59
2023-01-15T08:26:16.995Z,8.67
2023-01-15T08:31:18.499Z,8.78
2023-01-15T08:36:19.995Z,8.68
2023-01-15T08:41:21.426Z,8.80
2023-01-15T08:46:22.994Z,8.70
2023-01-15T08:51:24.415Z,8.68
2023-01-15T08:56:25.977Z,8.70
2023-01-15T09:01:27.555Z,8.68
2023-01-15T09:06:29.042Z,8.69
2023-01-15T09:11:30.579Z,8.79
2023-01-15T09:16:32.784Z,8.65
2023-01-15T09:21:34.724Z,8.87
2023-01-15T09:26:38.426Z,8.80
2023-01-15T09:31:39.881Z,8.77
2023-01-15T09:36:41.568Z,8.77
2023-01-15T09:42:05.393Z,8.91
2023-01-15T09:47:20.978Z,9.04
2023-01-15T09:52:50.244Z,8.80
2023-01-15T09:57:54.095Z,9.01
2023-01-15T10:03:04.226Z,8.98
2023-01-15T10:08:21.306Z,8.94
2023-01-15T10:13:41.615Z,9.10
2023-01-15T10:18:43.563Z,9.01
2023-01-15T10:24:10.716Z,8.85
2023-01-15T10:29:30.475Z,8.90
2023-01-15T10:34:57.182Z,8.84
2023-01-15T10:40:23.151Z,8.82
2023-01-15T10:45:27.687Z,8.91
2023-01-15T10:50:29.135Z,8.88
2023-01-15T10:55:38.635Z,9.00
2023-01-15T11:00:40.785Z,9.06
2023-01-15T11:05:45.674Z,9.14
2023-01-15T11:10:47.107Z,9.06
2023-01-15T11:16:08.944Z,9.11
2023-01-15T11:21:17.157Z,9.34
2023-01-15T11:26:22.798Z,9.32
2023-01-15T11:31:35.887Z,9.40
2023-01-15T11:36:37.352Z,9.28
2023-01-15T11:41:57.224Z,9.32
2023-01-15T11:47:17.330Z,9.15
2023-01-15T11:52:26.179Z,9.40
2023-01-15T11:57:32.745Z,9.42
2023-01-15T12:02:50.531Z,9.38
2023-01-15T12:07:55.508Z,9.21
2023-01-15T12:13:20.229Z,9.09
2023-01-15T12:18:44.469Z,9.02
2023-01-15T12:24:13.517Z,9.09
2023-01-15T12:29:17.734Z,9.09
2023-01-15T12:34:41.219Z,9.12
2023-01-15T12:39:51.939Z,9.28
2023-01-15T12:45:04.145Z,9.43
2023-01-15T12:50:36.824Z,9.41
2023-01-15T12:55:45.032Z,9.07
2023-01-15T13:00:49.259Z,8.68
2023-01-15T13:05:56.405Z,8.39
2023-01-15T13:10:58.050Z,8.51
2023-01-15T13:16:14.543Z,7.91
2023-01-15T13:21:18.312Z,7.49
2023-01-15T13:26:53.430Z,7.31
2023-01-15T13:32:03.563Z,7.34
2023-01-15T13:37:22.170Z,7.10
2023-01-15T13:42:32.426Z,7.41
2023-01-15T13:47:38.156Z,7.46
2023-01-15T13:52:39.690Z,7.29
2023-01-15T13:57:42.962Z,7.38
2023-01-15T14:02:52.522Z,7.33
2023-01-15T14:07:54.151Z,7.44
2023-01-15T14:13:07.958Z,7.64
2023-01-15T14:18:20.589Z,7.35
2023-01-15T14:23:57.603Z,7.58
2023-01-15T14:29:02.807Z,7.64
2023-01-15T14:34:25.554Z,7.42
2023-01-15T14:39:45.680Z,7.70
2023-01-15T14:44:47.635Z,7.53
2023-01-15T14:50:37.848Z,7.47
2023-01-15T14:55:49.620Z,7.28
2023-01-15T15:00:55.783Z,7.30
2023-01-15T15:05:57.588Z,7.34
2023-01-15T15:11:00.845Z,7.42
2023-01-15T15:16:18.984Z,7.40
2023-01-15T15:21:30.256Z,7.47
2023-01-15T15:26:34.551Z,7.29
2023-01-15T15:31:45.313Z,7.39
2023-01-15T15:36:47.004Z,7.47
2023-01-15T15:42:09.764Z,7.22
2023-01-15T15:47:38.795Z,7.02
2023-01-15T15:52:44.540Z,7.09
2023-01-15T15:57:51.021Z,7.08
2023-01-15T16:02:52.624Z,6.85
2023-01-15T16:07:55.511Z,7.01
2023-01-15T16:13:01.771Z,7.19
2023-01-15T16:18:05.244Z,7.28
2023-01-15T16:23:21.499Z,7.13
2023-01-15T16:28:25.994Z,7.09
2023-01-15T16:33:28.076Z,7.00
2023-01-15T16:38:29.560Z,7.11
2023-01-15T16:43:31.426Z,7.01
2023-01-15T16:48:41.609Z,7.04
2023-01-15T16:53:43.020Z,7.09
2023-01-15T16:58:44.642Z,6.95
2023-01-15T17:03:46.195Z,6.99
2023-01-15T17:08:49.239Z,6.82
2023-01-15T17:13:51.478Z,6.88
2023-01-15T17:18:53.045Z,6.84
2023-01-15T17:23:55.866Z,6.77
2023-01-15T17:28:57.318Z,6.72
2023-01-15T17:34:00.689Z,6.78
2023-01-15T17:39:02.509Z,6.93
2023-01-15T17:44:04.101Z,6.98
2023-01-15T17:49:05.533Z,6.98
2023-01-15T17:54:06.973Z,7.00
2023-01-15T17:59:30.469Z,7.03
2023-01-15T18:05:00.177Z,6.96
2023-01-15T18:10:01.885Z,6.97
2023-01-15T18:15:03.526Z,6.92
2023-01-15T18:20:05.685Z,6.85
2023-01-15T18:25:10.573Z,6.85
2023-01-15T18:30:13.968Z,6.90
2023-01-15T18:35:15.943Z,6.97
2023-01-15T18:40:17.503Z,6.93
2023-01-15T18:45:37.297Z,6.88
2023-01-15T18:50:38.740Z,6.92
2023-01-15T18:55:40.181Z,7.02
2023-01-15T19:00:41.671Z,7.07
2023-01-15T19:05:43.106Z,7.10
2023-01-15T19:10:44.519Z,7.06
2023-01-15T19:16:04.786Z,7.11
2023-01-15T19:21:07.894Z,7.09
2023-01-15T19:26:09.513Z,7.08
2023-01-15T19:31:29.647Z,7.10
2023-01-15T19:36:31.091Z,7.10
2023-01-15T19:41:51.393Z,7.22
2023-01-15T19:47:11.500Z,7.13
2023-01-15T19:52:31.396Z,7.17
2023-01-15T19:57:32.838Z,7.14
2023-01-15T20:02:34.816Z,7.15
2023-01-15T20:07:36.419Z,7.15
2023-01-15T20:12:56.226Z,7.11
2023-01-15T20:17:58.172Z,7.03
2023-01-15T20:22:59.754Z,6.97
2023-01-15T20:28:01.299Z,6.89
2023-01-15T20:33:02.886Z,6.73
2023-01-15T20:38:04.371Z,6.66
2023-01-15T20:43:24.260Z,6.71
2023-01-15T20:48:44.264Z,6.69
2023-01-15T20:53:45.973Z,6.49
2023-01-15T20:58:47.524Z,6.38
2023-01-15T21:03:48.952Z,6.34
2023-01-15T21:08:50.494Z,6.33
2023-01-15T21:13:52.032Z,6.29
2023-01-15T21:18:53.487Z,6.16
2023-01-15T21:23:55.071Z,6.08
2023-01-15T21:28:56.567Z,6.01
2023-01-15T21:33:58.781Z,5.95
2023-01-15T21:39:01.917Z,5.51
2023-01-15T21:44:21.976Z,5.36
2023-01-15T21:49:23.549Z,5.23
2023-01-15T21:54:25.018Z,5.09
2023-01-15T21:59:26.561Z,4.99
2023-01-15T22:04:30.042Z,5.01
2023-01-15T22:09:31.472Z,4.96
2023-01-15T22:14:33.490Z,4.90
2023-01-15T22:19:34.973Z,4.89
2023-01-15T22:24:39.639Z,5.08
2023-01-15T22:29:42.480Z,4.93
2023-01-15T22:34:44.072Z,4.88
2023-01-15T22:39:46.524Z,4.93
2023-01-15T22:44:48.920Z,5.03
2023-01-15T22:49:50.759Z,5.10
2023-01-15T22:54:52.723Z,5.03
2023-01-15T22:59:54.164Z,4.96
2023-01-15T23:04:55.577Z,5.08
2023-01-15T23:09:56.994Z,4.92
2023-01-15T23:14:58.671Z,4.90
2023-01-15T23:20:00.190Z,4.88
2023-01-15T23:25:01.645Z,4.85
2023-01-15T23:30:04.025Z,4.82
2023-01-15T23:35:07.509Z,4.65
2023-01-15T23:40:09.718Z,4.38
2023-01-15T23:45:30.334Z,4.25
2023-01-15T23:50:31.759Z,4.32
2023-01-15T23:55:33.172Z,4.39
